sensor_id;sensor_type;location;lat;lon;timestamp;P1;durP1;ratioP1;P2;durP2;ratioP2
16468;SDS011;8345;50.902;6.956;2024-02-28T00:02:25;33.70;;;23.90;;
16468;SDS011;8345;50.902;6.956;2024-02-28T00:04:53;31.87;;;22.70;;
16468;SDS011;8345;50.902;6.956;2024-02-28T00:07:20;34.13;;;24.73;;
16468;SDS011;8345;50.902;6.956;2024-02-28T00:09:48;33.23;;;23.90;;
16468;SDS011;8345;50.902;6.956;2024-02-28T00:12:16;34.27;;;24.27;;
16468;SDS011;8345;50.902;6.956;2024-02-28T00:14:43;32.27;;;22.80;;
16468;SDS011;8345;50.902;6.956;2024-02-28T00:17:11;34.87;;;23.90;;
16468;SDS011;8345;50.902;6.956;2024-02-28T00:19:38;33.50;;;23.83;;
16468;SDS011;8345;50.902;6.956;2024-02-28T00:22:07;32.50;;;23.73;;
16468;SDS011;8345;50.902;6.956;2024-02-28T00:24:34;35.50;;;23.80;;
16468;SDS011;8345;50.902;6.956;2024-02-28T00:27:03;32.37;;;23.67;;
16468;SDS011;8345;50.902;6.956;2024-02-28T00:29:30;37.37;;;24.23;;
16468;SDS011;8345;50.902;6.956;2024-02-28T00:31:57;31.33;;;23.33;;
16468;SDS011;8345;50.902;6.956;2024-02-28T00:34:24;31.40;;;24.30;;
16468;SDS011;8345;50.902;6.956;2024-02-28T00:36:52;32.63;;;23.03;;
16468;SDS011;8345;50.902;6.956;2024-02-28T00:39:19;32.80;;;24.13;;
16468;SDS011;8345;50.902;6.956;2024-02-28T00:41:46;34.70;;;24.70;;
16468;SDS011;8345;50.902;6.956;2024-02-28T00:44:14;36.40;;;25.63;;
16468;SDS011;8345;50.902;6.956;2024-02-28T00:46:42;33.97;;;23.73;;
16468;SDS011;8345;50.902;6.956;2024-02-28T00:49:09;34.67;;;24.07;;
16468;SDS011;8345;50.902;6.956;2024-02-28T00:51:36;32.43;;;23.60;;
16468;SDS011;8345;50.902;6.956;2024-02-28T00:54:03;32.60;;;25.27;;
16468;SDS011;8345;50.902;6.956;2024-02-28T00:56:30;32.43;;;25.27;;
16468;SDS011;8345;50.902;6.956;2024-02-28T00:58:58;34.60;;;24.90;;
16468;SDS011;8345;50.902;6.956;2024-02-28T01:01:26;31.43;;;24.03;;
16468;SDS011;8345;50.902;6.956;2024-02-28T01:03:53;34.80;;;25.97;;
16468;SDS011;8345;50.902;6.956;2024-02-28T01:06:21;35.40;;;26.03;;
16468;SDS011;8345;50.902;6.956;2024-02-28T01:08:48;37.10;;;26.33;;
16468;SDS011;8345;50.902;6.956;2024-02-28T01:11:15;33.10;;;24.57;;
16468;SDS011;8345;50.902;6.956;2024-02-28T01:13:42;33.97;;;24.43;;
16468;SDS011;8345;50.902;6.956;2024-02-28T01:16:10;30.23;;;22.93;;
16468;SDS011;8345;50.902;6.956;2024-02-28T01:18:38;33.57;;;24.83;;
16468;SDS011;8345;50.902;6.956;2024-02-28T01:21:05;36.60;;;25.23;;
16468;SDS011;8345;50.902;6.956;2024-02-28T01:23:33;34.57;;;24.17;;
16468;SDS011;8345;50.902;6.956;2024-02-28T01:26:00;33.13;;;23.30;;
16468;SDS011;8345;50.902;6.956;2024-02-28T01:28:28;31.20;;;23.30;;
16468;SDS011;8345;50.902;6.956;2024-02-28T01:30:55;32.93;;;23.77;;
16468;SDS011;8345;50.902;6.956;2024-02-28T01:33:23;34.80;;;25.87;;
16468;SDS011;8345;50.902;6.956;2024-02-28T01:35:51;35.80;;;24.97;;
16468;SDS011;8345;50.902;6.956;2024-02-28T01:38:18;31.97;;;25.00;;
16468;SDS011;8345;50.902;6.956;2024-02-28T01:40:46;37.97;;;25.63;;
16468;SDS011;8345;50.902;6.956;2024-02-28T01:43:13;37.03;;;25.93;;
16468;SDS011;8345;50.902;6.956;2024-02-28T01:45:40;38.33;;;27.40;;
16468;SDS011;8345;50.902;6.956;2024-02-28T01:48:08;38.23;;;28.13;;
16468;SDS011;8345;50.902;6.956;2024-02-28T01:50:36;38.37;;;27.47;;
16468;SDS011;8345;50.902;6.956;2024-02-28T01:53:05;38.30;;;27.53;;
16468;SDS011;8345;50.902;6.956;2024-02-28T01:55:33;42.00;;;29.07;;
16468;SDS011;8345;50.902;6.956;2024-02-28T01:58:01;39.27;;;26.77;;
16468;SDS011;8345;50.902;6.956;2024-02-28T02:00:30;41.07;;;28.83;;
16468;SDS011;8345;50.902;6.956;2024-02-28T02:02:59;38.43;;;27.70;;
16468;SDS011;8345;50.902;6.956;2024-02-28T02:05:26;39.17;;;29.27;;
16468;SDS011;8345;50.902;6.956;2024-02-28T02:07:53;39.60;;;29.33;;
16468;SDS011;8345;50.902;6.956;2024-02-28T02:10:22;35.40;;;27.60;;
16468;SDS011;8345;50.902;6.956;2024-02-28T02:12:50;39.10;;;28.47;;
16468;SDS011;8345;50.902;6.956;2024-02-28T02:15:17;39.83;;;28.90;;
16468;SDS011;8345;50.902;6.956;2024-02-28T02:17:44;41.87;;;29.97;;
16468;SDS011;8345;50.902;6.956;2024-02-28T02:20:11;40.63;;;28.70;;
16468;SDS011;8345;50.902;6.956;2024-02-28T02:22:42;41.33;;;30.97;;
16468;SDS011;8345;50.902;6.956;2024-02-28T02:25:09;43.97;;;31.90;;
16468;SDS011;8345;50.902;6.956;2024-02-28T02:27:37;46.23;;;31.97;;
16468;SDS011;8345;50.902;6.956;2024-02-28T02:30:04;41.00;;;29.27;;
16468;SDS011;8345;50.902;6.956;2024-02-28T02:32:32;36.97;;;28.47;;
16468;SDS011;8345;50.902;6.956;2024-02-28T02:34:59;37.73;;;28.10;;
16468;SDS011;8345;50.902;6.956;2024-02-28T02:37:26;42.87;;;29.43;;
16468;SDS011;8345;50.902;6.956;2024-02-28T02:39:54;39.37;;;29.07;;
16468;SDS011;8345;50.902;6.956;2024-02-28T02:42:22;45.67;;;30.90;;
16468;SDS011;8345;50.902;6.956;2024-02-28T02:44:49;46.07;;;31.57;;
16468;SDS011;8345;50.902;6.956;2024-02-28T02:47:16;44.03;;;32.13;;
16468;SDS011;8345;50.902;6.956;2024-02-28T02:49:43;46.40;;;32.63;;
16468;SDS011;8345;50.902;6.956;2024-02-28T02:52:10;47.67;;;32.90;;
16468;SDS011;8345;50.902;6.956;2024-02-28T02:54:37;43.53;;;31.80;;
16468;SDS011;8345;50.902;6.956;2024-02-28T02:57:06;44.57;;;31.77;;
16468;SDS011;8345;50.902;6.956;2024-02-28T02:59:33;46.17;;;31.80;;
16468;SDS011;8345;50.902;6.956;2024-02-28T03:02:00;46.63;;;31.57;;
16468;SDS011;8345;50.902;6.956;2024-02-28T03:04:29;45.80;;;31.60;;
16468;SDS011;8345;50.902;6.956;2024-02-28T03:06:56;45.50;;;32.40;;
16468;SDS011;8345;50.902;6.956;2024-02-28T03:09:23;45.30;;;31.97;;
16468;SDS011;8345;50.902;6.956;2024-02-28T03:11:50;46.40;;;32.57;;
16468;SDS011;8345;50.902;6.956;2024-02-28T03:14:19;48.30;;;33.03;;
16468;SDS011;8345;50.902;6.956;2024-02-28T03:16:47;44.17;;;31.23;;
16468;SDS011;8345;50.902;6.956;2024-02-28T03:19:14;48.13;;;33.20;;
16468;SDS011;8345;50.902;6.956;2024-02-28T03:21:41;48.73;;;33.43;;
16468;SDS011;8345;50.902;6.956;2024-02-28T03:24:09;52.07;;;34.20;;
16468;SDS011;8345;50.902;6.956;2024-02-28T03:26:36;53.30;;;36.23;;
16468;SDS011;8345;50.902;6.956;2024-02-28T03:29:03;52.53;;;34.70;;
16468;SDS011;8345;50.902;6.956;2024-02-28T03:31:31;51.07;;;35.67;;
16468;SDS011;8345;50.902;6.956;2024-02-28T03:33:59;55.40;;;37.90;;
16468;SDS011;8345;50.902;6.956;2024-02-28T03:36:27;54.97;;;37.17;;
16468;SDS011;8345;50.902;6.956;2024-02-28T03:38:54;55.80;;;36.83;;
16468;SDS011;8345;50.902;6.956;2024-02-28T03:41:21;57.00;;;38.27;;
16468;SDS011;8345;50.902;6.956;2024-02-28T03:43:48;57.37;;;37.67;;
16468;SDS011;8345;50.902;6.956;2024-02-28T03:46:16;57.53;;;37.40;;
16468;SDS011;8345;50.902;6.956;2024-02-28T03:48:44;57.97;;;38.93;;
16468;SDS011;8345;50.902;6.956;2024-02-28T03:51:11;58.90;;;39.03;;
16468;SDS011;8345;50.902;6.956;2024-02-28T03:53:40;58.93;;;38.33;;
16468;SDS011;8345;50.902;6.956;2024-02-28T03:56:07;55.63;;;37.13;;
16468;SDS011;8345;50.902;6.956;2024-02-28T03:58:34;61.20;;;38.53;;
16468;SDS011;8345;50.902;6.956;2024-02-28T04:01:02;58.07;;;37.40;;
16468;SDS011;8345;50.902;6.956;2024-02-28T04:03:29;57.63;;;37.80;;
16468;SDS011;8345;50.902;6.956;2024-02-28T04:05:58;57.87;;;34.63;;
16468;SDS011;8345;50.902;6.956;2024-02-28T04:08:25;56.00;;;36.83;;
16468;SDS011;8345;50.902;6.956;2024-02-28T04:10:52;60.77;;;38.20;;
16468;SDS011;8345;50.902;6.956;2024-02-28T04:13:19;54.93;;;37.60;;
16468;SDS011;8345;50.902;6.956;2024-02-28T04:15:46;55.17;;;36.47;;
16468;SDS011;8345;50.902;6.956;2024-02-28T04:18:14;59.63;;;37.70;;
16468;SDS011;8345;50.902;6.956;2024-02-28T04:20:41;55.73;;;36.33;;
16468;SDS011;8345;50.902;6.956;2024-02-28T04:23:09;55.43;;;37.20;;
16468;SDS011;8345;50.902;6.956;2024-02-28T04:25:36;55.73;;;37.57;;
16468;SDS011;8345;50.902;6.956;2024-02-28T04:28:05;56.33;;;37.07;;
16468;SDS011;8345;50.902;6.956;2024-02-28T04:30:33;56.80;;;37.37;;
16468;SDS011;8345;50.902;6.956;2024-02-28T04:33:01;56.10;;;37.97;;
16468;SDS011;8345;50.902;6.956;2024-02-28T04:35:28;60.50;;;38.90;;
16468;SDS011;8345;50.902;6.956;2024-02-28T04:37:55;56.87;;;36.43;;
16468;SDS011;8345;50.902;6.956;2024-02-28T04:40:24;57.57;;;37.63;;
16468;SDS011;8345;50.902;6.956;2024-02-28T04:42:51;62.27;;;38.07;;
16468;SDS011;8345;50.902;6.956;2024-02-28T04:45:18;55.37;;;36.60;;
16468;SDS011;8345;50.902;6.956;2024-02-28T04:47:45;57.43;;;37.07;;
16468;SDS011;8345;50.902;6.956;2024-02-28T04:50:12;58.13;;;37.23;;
16468;SDS011;8345;50.902;6.956;2024-02-28T04:52:40;60.33;;;37.33;;
16468;SDS011;8345;50.902;6.956;2024-02-28T04:55:07;55.43;;;37.20;;
16468;SDS011;8345;50.902;6.956;2024-02-28T04:57:36;61.13;;;38.37;;
16468;SDS011;8345;50.902;6.956;2024-02-28T05:00:03;61.33;;;39.37;;
16468;SDS011;8345;50.902;6.956;2024-02-28T05:02:31;63.37;;;39.17;;
16468;SDS011;8345;50.902;6.956;2024-02-28T05:04:58;58.60;;;37.67;;
16468;SDS011;8345;50.902;6.956;2024-02-28T05:07:25;60.00;;;37.93;;
16468;SDS011;8345;50.902;6.956;2024-02-28T05:09:52;60.40;;;39.23;;
16468;SDS011;8345;50.902;6.956;2024-02-28T05:12:19;56.30;;;37.17;;
16468;SDS011;8345;50.902;6.956;2024-02-28T05:14:48;59.80;;;38.60;;
16468;SDS011;8345;50.902;6.956;2024-02-28T05:17:15;58.90;;;38.00;;
16468;SDS011;8345;50.902;6.956;2024-02-28T05:19:43;59.97;;;37.93;;
16468;SDS011;8345;50.902;6.956;2024-02-28T05:22:10;62.30;;;39.07;;
16468;SDS011;8345;50.902;6.956;2024-02-28T05:24:37;63.97;;;39.33;;
16468;SDS011;8345;50.902;6.956;2024-02-28T05:27:04;63.70;;;41.00;;
16468;SDS011;8345;50.902;6.956;2024-02-28T05:29:31;60.90;;;37.53;;
16468;SDS011;8345;50.902;6.956;2024-02-28T05:32:00;58.40;;;37.50;;
16468;SDS011;8345;50.902;6.956;2024-02-28T05:34:27;56.93;;;37.40;;
16468;SDS011;8345;50.902;6.956;2024-02-28T05:36:54;62.90;;;38.17;;
16468;SDS011;8345;50.902;6.956;2024-02-28T05:39:22;61.50;;;38.10;;
16468;SDS011;8345;50.902;6.956;2024-02-28T05:41:49;61.13;;;39.50;;
16468;SDS011;8345;50.902;6.956;2024-02-28T05:44:16;62.33;;;38.63;;
16468;SDS011;8345;50.902;6.956;2024-02-28T05:46:43;64.47;;;40.13;;
16468;SDS011;8345;50.902;6.956;2024-02-28T05:49:12;59.53;;;38.53;;
16468;SDS011;8345;50.902;6.956;2024-02-28T05:51:39;62.00;;;39.40;;
16468;SDS011;8345;50.902;6.956;2024-02-28T05:54:06;61.60;;;38.27;;
16468;SDS011;8345;50.902;6.956;2024-02-28T05:56:33;63.23;;;41.07;;
16468;SDS011;8345;50.902;6.956;2024-02-28T05:59:01;60.40;;;38.53;;
16468;SDS011;8345;50.902;6.956;2024-02-28T06:01:28;60.70;;;37.87;;
16468;SDS011;8345;50.902;6.956;2024-02-28T06:03:55;59.83;;;38.67;;
16468;SDS011;8345;50.902;6.956;2024-02-28T06:06:24;60.70;;;38.53;;
16468;SDS011;8345;50.902;6.956;2024-02-28T06:08:52;60.10;;;37.70;;
16468;SDS011;8345;50.902;6.956;2024-02-28T06:11:19;64.13;;;39.20;;
16468;SDS011;8345;50.902;6.956;2024-02-28T06:13:46;62.27;;;39.67;;
16468;SDS011;8345;50.902;6.956;2024-02-28T06:16:15;59.03;;;37.90;;
16468;SDS011;8345;50.902;6.956;2024-02-28T06:18:43;64.00;;;38.03;;
16468;SDS011;8345;50.902;6.956;2024-02-28T06:21:10;61.70;;;37.73;;
16468;SDS011;8345;50.902;6.956;2024-02-28T06:23:39;57.30;;;38.07;;
16468;SDS011;8345;50.902;6.956;2024-02-28T06:26:06;67.50;;;40.13;;
16468;SDS011;8345;50.902;6.956;2024-02-28T06:28:40;58.20;;;37.23;;
16468;SDS011;8345;50.902;6.956;2024-02-28T06:31:11;59.87;;;36.30;;
16468;SDS011;8345;50.902;6.956;2024-02-28T06:33:38;67.10;;;37.40;;
16468;SDS011;8345;50.902;6.956;2024-02-28T06:36:06;59.37;;;36.37;;
16468;SDS011;8345;50.902;6.956;2024-02-28T06:38:33;66.20;;;37.63;;
16468;SDS011;8345;50.902;6.956;2024-02-28T06:41:02;66.37;;;38.73;;
16468;SDS011;8345;50.902;6.956;2024-02-28T06:43:32;59.30;;;36.07;;
16468;SDS011;8345;50.902;6.956;2024-02-28T06:46:00;63.57;;;36.30;;
16468;SDS011;8345;50.902;6.956;2024-02-28T06:48:28;60.50;;;36.43;;
16468;SDS011;8345;50.902;6.956;2024-02-28T06:50:55;60.63;;;36.03;;
16468;SDS011;8345;50.902;6.956;2024-02-28T06:53:23;58.67;;;35.60;;
16468;SDS011;8345;50.902;6.956;2024-02-28T06:55:51;60.80;;;36.80;;
16468;SDS011;8345;50.902;6.956;2024-02-28T06:58:19;58.37;;;37.33;;
16468;SDS011;8345;50.902;6.956;2024-02-28T07:00:48;62.93;;;37.47;;
16468;SDS011;8345;50.902;6.956;2024-02-28T07:03:16;61.23;;;37.87;;
16468;SDS011;8345;50.902;6.956;2024-02-28T07:05:43;59.30;;;36.47;;
16468;SDS011;8345;50.902;6.956;2024-02-28T07:08:11;60.73;;;36.80;;
16468;SDS011;8345;50.902;6.956;2024-02-28T07:10:38;58.67;;;36.17;;
16468;SDS011;8345;50.902;6.956;2024-02-28T07:13:08;60.77;;;38.83;;
16468;SDS011;8345;50.902;6.956;2024-02-28T07:15:37;59.03;;;36.57;;
16468;SDS011;8345;50.902;6.956;2024-02-28T07:18:05;66.13;;;37.07;;
16468;SDS011;8345;50.902;6.956;2024-02-28T07:20:32;57.50;;;35.70;;
16468;SDS011;8345;50.902;6.956;2024-02-28T07:22:59;57.57;;;36.23;;
16468;SDS011;8345;50.902;6.956;2024-02-28T07:25:26;58.53;;;36.60;;
16468;SDS011;8345;50.902;6.956;2024-02-28T07:27:56;59.40;;;37.43;;
16468;SDS011;8345;50.902;6.956;2024-02-28T07:30:24;57.03;;;35.93;;
16468;SDS011;8345;50.902;6.956;2024-02-28T07:32:52;58.37;;;36.53;;
16468;SDS011;8345;50.902;6.956;2024-02-28T07:35:20;65.10;;;38.20;;
16468;SDS011;8345;50.902;6.956;2024-02-28T07:37:48;63.73;;;37.20;;
16468;SDS011;8345;50.902;6.956;2024-02-28T07:40:16;56.60;;;34.67;;
16468;SDS011;8345;50.902;6.956;2024-02-28T07:42:43;59.57;;;35.70;;
16468;SDS011;8345;50.902;6.956;2024-02-28T07:45:11;59.30;;;36.33;;
16468;SDS011;8345;50.902;6.956;2024-02-28T07:47:38;63.23;;;37.37;;
16468;SDS011;8345;50.902;6.956;2024-02-28T07:50:07;65.23;;;37.60;;
16468;SDS011;8345;50.902;6.956;2024-02-28T07:52:35;58.47;;;36.87;;
16468;SDS011;8345;50.902;6.956;2024-02-28T07:55:02;59.07;;;37.20;;
16468;SDS011;8345;50.902;6.956;2024-02-28T07:57:30;57.80;;;35.80;;
16468;SDS011;8345;50.902;6.956;2024-02-28T07:59:58;56.60;;;36.70;;
16468;SDS011;8345;50.902;6.956;2024-02-28T08:02:26;57.77;;;35.90;;
16468;SDS011;8345;50.902;6.956;2024-02-28T08:04:53;58.53;;;37.10;;
16468;SDS011;8345;50.902;6.956;2024-02-28T08:07:21;57.27;;;36.17;;
16468;SDS011;8345;50.902;6.956;2024-02-28T08:09:49;60.30;;;37.47;;
16468;SDS011;8345;50.902;6.956;2024-02-28T08:12:16;59.00;;;37.17;;
16468;SDS011;8345;50.902;6.956;2024-02-28T08:14:43;55.10;;;36.57;;
16468;SDS011;8345;50.902;6.956;2024-02-28T08:17:11;65.43;;;39.13;;
16468;SDS011;8345;50.902;6.956;2024-02-28T08:19:40;59.07;;;37.80;;
16468;SDS011;8345;50.902;6.956;2024-02-28T08:22:08;64.57;;;39.37;;
16468;SDS011;8345;50.902;6.956;2024-02-28T08:24:37;68.70;;;40.10;;
16468;SDS011;8345;50.902;6.956;2024-02-28T08:27:04;59.67;;;39.43;;
16468;SDS011;8345;50.902;6.956;2024-02-28T08:29:31;58.57;;;38.97;;
16468;SDS011;8345;50.902;6.956;2024-02-28T08:32:00;68.93;;;40.47;;
16468;SDS011;8345;50.902;6.956;2024-02-28T08:34:29;62.17;;;37.97;;
16468;SDS011;8345;50.902;6.956;2024-02-28T08:36:56;59.17;;;37.23;;
16468;SDS011;8345;50.902;6.956;2024-02-28T08:39:23;57.00;;;35.97;;
16468;SDS011;8345;50.902;6.956;2024-02-28T08:41:51;54.47;;;36.33;;
16468;SDS011;8345;50.902;6.956;2024-02-28T08:44:19;54.83;;;35.17;;
16468;SDS011;8345;50.902;6.956;2024-02-28T08:46:46;52.50;;;34.80;;
16468;SDS011;8345;50.902;6.956;2024-02-28T08:49:14;50.77;;;34.30;;
16468;SDS011;8345;50.902;6.956;2024-02-28T08:51:42;55.20;;;36.80;;
16468;SDS011;8345;50.902;6.956;2024-02-28T08:54:09;53.00;;;35.77;;
16468;SDS011;8345;50.902;6.956;2024-02-28T08:56:37;52.07;;;35.13;;
16468;SDS011;8345;50.902;6.956;2024-02-28T08:59:05;53.20;;;34.57;;
16468;SDS011;8345;50.902;6.956;2024-02-28T09:01:33;54.87;;;35.47;;
16468;SDS011;8345;50.902;6.956;2024-02-28T09:04:01;52.00;;;34.83;;
16468;SDS011;8345;50.902;6.956;2024-02-28T09:06:28;50.83;;;35.10;;
16468;SDS011;8345;50.902;6.956;2024-02-28T09:08:59;50.90;;;33.90;;
16468;SDS011;8345;50.902;6.956;2024-02-28T09:11:26;50.37;;;33.13;;
16468;SDS011;8345;50.902;6.956;2024-02-28T09:13:53;53.20;;;34.73;;
16468;SDS011;8345;50.902;6.956;2024-02-28T09:16:22;49.27;;;33.80;;
16468;SDS011;8345;50.902;6.956;2024-02-28T09:18:49;50.57;;;34.43;;
16468;SDS011;8345;50.902;6.956;2024-02-28T09:21:16;54.37;;;34.20;;
16468;SDS011;8345;50.902;6.956;2024-02-28T09:23:43;52.53;;;34.33;;
16468;SDS011;8345;50.902;6.956;2024-02-28T09:26:10;48.73;;;33.83;;
16468;SDS011;8345;50.902;6.956;2024-02-28T09:28:38;51.53;;;33.77;;
16468;SDS011;8345;50.902;6.956;2024-02-28T09:31:05;49.63;;;33.70;;
16468;SDS011;8345;50.902;6.956;2024-02-28T09:33:34;48.37;;;32.93;;
16468;SDS011;8345;50.902;6.956;2024-02-28T09:36:01;51.90;;;35.13;;
16468;SDS011;8345;50.902;6.956;2024-02-28T09:38:29;54.73;;;35.80;;
16468;SDS011;8345;50.902;6.956;2024-02-28T09:40:57;51.83;;;34.33;;
16468;SDS011;8345;50.902;6.956;2024-02-28T09:43:28;52.63;;;33.93;;
16468;SDS011;8345;50.902;6.956;2024-02-28T09:45:56;56.13;;;36.23;;
16468;SDS011;8345;50.902;6.956;2024-02-28T09:48:25;51.97;;;35.77;;
16468;SDS011;8345;50.902;6.956;2024-02-28T09:50:56;52.23;;;35.17;;
16468;SDS011;8345;50.902;6.956;2024-02-28T09:53:23;50.57;;;34.23;;
16468;SDS011;8345;50.902;6.956;2024-02-28T09:55:50;51.90;;;35.00;;
16468;SDS011;8345;50.902;6.956;2024-02-28T09:58:18;51.20;;;35.37;;
16468;SDS011;8345;50.902;6.956;2024-02-28T10:00:46;54.10;;;36.07;;
16468;SDS011;8345;50.902;6.956;2024-02-28T10:03:15;52.80;;;36.80;;
16468;SDS011;8345;50.902;6.956;2024-02-28T10:05:43;55.83;;;37.87;;
16468;SDS011;8345;50.902;6.956;2024-02-28T10:08:12;54.77;;;37.47;;
16468;SDS011;8345;50.902;6.956;2024-02-28T10:10:44;57.90;;;36.17;;
16468;SDS011;8345;50.902;6.956;2024-02-28T10:13:12;53.03;;;37.17;;
16468;SDS011;8345;50.902;6.956;2024-02-28T10:15:40;58.07;;;38.47;;
16468;SDS011;8345;50.902;6.956;2024-02-28T10:18:07;54.00;;;36.50;;
16468;SDS011;8345;50.902;6.956;2024-02-28T10:20:34;55.80;;;38.00;;
16468;SDS011;8345;50.902;6.956;2024-02-28T10:23:03;53.27;;;37.23;;
16468;SDS011;8345;50.902;6.956;2024-02-28T10:25:32;54.43;;;36.40;;
16468;SDS011;8345;50.902;6.956;2024-02-28T10:27:59;56.90;;;37.00;;
16468;SDS011;8345;50.902;6.956;2024-02-28T10:30:26;54.23;;;36.90;;
16468;SDS011;8345;50.902;6.956;2024-02-28T10:32:53;52.80;;;37.73;;
16468;SDS011;8345;50.902;6.956;2024-02-28T10:35:21;57.30;;;36.40;;
16468;SDS011;8345;50.902;6.956;2024-02-28T10:37:50;48.60;;;33.53;;
16468;SDS011;8345;50.902;6.956;2024-02-28T10:40:18;51.17;;;33.13;;
16468;SDS011;8345;50.902;6.956;2024-02-28T10:42:48;48.20;;;33.77;;
16468;SDS011;8345;50.902;6.956;2024-02-28T10:45:16;47.87;;;33.27;;
16468;SDS011;8345;50.902;6.956;2024-02-28T10:47:45;47.80;;;32.83;;
16468;SDS011;8345;50.902;6.956;2024-02-28T10:50:13;47.13;;;31.50;;
16468;SDS011;8345;50.902;6.956;2024-02-28T10:52:43;48.00;;;31.67;;
16468;SDS011;8345;50.902;6.956;2024-02-28T10:55:12;41.60;;;29.77;;
16468;SDS011;8345;50.902;6.956;2024-02-28T10:57:42;43.03;;;32.13;;
16468;SDS011;8345;50.902;6.956;2024-02-28T11:00:12;39.97;;;29.73;;
16468;SDS011;8345;50.902;6.956;2024-02-28T11:02:41;46.83;;;30.97;;
16468;SDS011;8345;50.902;6.956;2024-02-28T11:05:09;44.63;;;32.20;;
16468;SDS011;8345;50.902;6.956;2024-02-28T11:07:40;41.43;;;30.20;;
16468;SDS011;8345;50.902;6.956;2024-02-28T11:10:07;42.80;;;30.50;;
16468;SDS011;8345;50.902;6.956;2024-02-28T11:12:36;41.57;;;31.10;;
16468;SDS011;8345;50.902;6.956;2024-02-28T11:15:04;51.13;;;32.83;;
16468;SDS011;8345;50.902;6.956;2024-02-28T11:17:33;41.43;;;30.47;;
16468;SDS011;8345;50.902;6.956;2024-02-28T11:20:10;40.67;;;30.57;;
16468;SDS011;8345;50.902;6.956;2024-02-28T11:22:38;41.00;;;29.13;;
16468;SDS011;8345;50.902;6.956;2024-02-28T11:25:06;38.80;;;29.37;;
16468;SDS011;8345;50.902;6.956;2024-02-28T11:27:33;41.70;;;30.60;;
16468;SDS011;8345;50.902;6.956;2024-02-28T11:30:00;42.03;;;30.53;;
16468;SDS011;8345;50.902;6.956;2024-02-28T11:32:29;40.63;;;30.27;;
16468;SDS011;8345;50.902;6.956;2024-02-28T11:35:01;41.63;;;29.57;;
16468;SDS011;8345;50.902;6.956;2024-02-28T11:37:28;39.93;;;30.50;;
16468;SDS011;8345;50.902;6.956;2024-02-28T11:39:55;36.50;;;27.87;;
16468;SDS011;8345;50.902;6.956;2024-02-28T11:42:23;36.90;;;27.87;;
16468;SDS011;8345;50.902;6.956;2024-02-28T11:44:53;38.73;;;29.47;;
16468;SDS011;8345;50.902;6.956;2024-02-28T11:47:22;37.00;;;28.43;;
16468;SDS011;8345;50.902;6.956;2024-02-28T11:49:50;37.50;;;28.67;;
16468;SDS011;8345;50.902;6.956;2024-02-28T11:52:18;37.23;;;27.20;;
16468;SDS011;8345;50.902;6.956;2024-02-28T11:54:46;34.27;;;26.77;;
16468;SDS011;8345;50.902;6.956;2024-02-28T11:57:13;38.43;;;28.37;;
16468;SDS011;8345;50.902;6.956;2024-02-28T11:59:43;36.53;;;27.30;;
16468;SDS011;8345;50.902;6.956;2024-02-28T12:02:11;36.37;;;26.67;;
16468;SDS011;8345;50.902;6.956;2024-02-28T12:04:39;38.70;;;28.40;;
16468;SDS011;8345;50.902;6.956;2024-02-28T12:07:06;37.07;;;26.90;;
16468;SDS011;8345;50.902;6.956;2024-02-28T12:09:35;39.93;;;27.33;;
16468;SDS011;8345;50.902;6.956;2024-02-28T12:12:04;34.57;;;26.93;;
16468;SDS011;8345;50.902;6.956;2024-02-28T12:14:31;36.20;;;26.70;;
16468;SDS011;8345;50.902;6.956;2024-02-28T12:16:58;32.93;;;25.73;;
16468;SDS011;8345;50.902;6.956;2024-02-28T12:19:25;34.27;;;26.47;;
16468;SDS011;8345;50.902;6.956;2024-02-28T12:21:53;36.47;;;26.67;;
16468;SDS011;8345;50.902;6.956;2024-02-28T12:24:21;33.20;;;26.53;;
16468;SDS011;8345;50.902;6.956;2024-02-28T12:26:49;34.07;;;25.30;;
16468;SDS011;8345;50.902;6.956;2024-02-28T12:29:16;33.93;;;26.67;;
16468;SDS011;8345;50.902;6.956;2024-02-28T12:31:44;30.53;;;24.20;;
16468;SDS011;8345;50.902;6.956;2024-02-28T12:34:11;31.63;;;25.10;;
16468;SDS011;8345;50.902;6.956;2024-02-28T12:36:43;39.43;;;26.80;;
16468;SDS011;8345;50.902;6.956;2024-02-28T12:39:10;34.97;;;25.97;;
16468;SDS011;8345;50.902;6.956;2024-02-28T12:41:38;31.13;;;23.77;;
16468;SDS011;8345;50.902;6.956;2024-02-28T12:44:07;32.67;;;22.80;;
16468;SDS011;8345;50.902;6.956;2024-02-28T12:46:35;30.57;;;24.23;;
16468;SDS011;8345;50.902;6.956;2024-02-28T12:49:03;31.47;;;24.57;;
16468;SDS011;8345;50.902;6.956;2024-02-28T12:51:36;31.83;;;24.33;;
16468;SDS011;8345;50.902;6.956;2024-02-28T12:54:04;28.53;;;22.83;;
16468;SDS011;8345;50.902;6.956;2024-02-28T12:56:31;29.53;;;23.17;;
16468;SDS011;8345;50.902;6.956;2024-02-28T12:58:59;32.07;;;23.63;;
16468;SDS011;8345;50.902;6.956;2024-02-28T13:01:27;29.73;;;22.43;;
16468;SDS011;8345;50.902;6.956;2024-02-28T13:03:55;31.70;;;22.90;;
16468;SDS011;8345;50.902;6.956;2024-02-28T13:06:22;30.07;;;23.60;;
16468;SDS011;8345;50.902;6.956;2024-02-28T13:08:49;29.80;;;22.93;;
16468;SDS011;8345;50.902;6.956;2024-02-28T13:11:17;31.17;;;23.50;;
16468;SDS011;8345;50.902;6.956;2024-02-28T13:13:45;30.23;;;23.47;;
16468;SDS011;8345;50.902;6.956;2024-02-28T13:16:13;31.83;;;23.60;;
16468;SDS011;8345;50.902;6.956;2024-02-28T13:18:41;31.57;;;22.83;;
16468;SDS011;8345;50.902;6.956;2024-02-28T13:21:09;29.77;;;21.97;;
16468;SDS011;8345;50.902;6.956;2024-02-28T13:23:36;29.37;;;22.53;;
16468;SDS011;8345;50.902;6.956;2024-02-28T13:26:03;32.43;;;22.43;;
16468;SDS011;8345;50.902;6.956;2024-02-28T13:28:30;31.00;;;22.40;;
16468;SDS011;8345;50.902;6.956;2024-02-28T13:30:58;27.53;;;20.60;;
16468;SDS011;8345;50.902;6.956;2024-02-28T13:33:25;25.80;;;20.33;;
16468;SDS011;8345;50.902;6.956;2024-02-28T13:35:54;24.73;;;20.43;;
16468;SDS011;8345;50.902;6.956;2024-02-28T13:38:21;30.30;;;20.87;;
16468;SDS011;8345;50.902;6.956;2024-02-28T13:40:48;25.60;;;18.90;;
16468;SDS011;8345;50.902;6.956;2024-02-28T13:43:16;26.97;;;20.33;;
16468;SDS011;8345;50.902;6.956;2024-02-28T13:45:46;24.83;;;19.50;;
16468;SDS011;8345;50.902;6.956;2024-02-28T13:48:14;23.10;;;18.17;;
16468;SDS011;8345;50.902;6.956;2024-02-28T13:50:43;24.50;;;19.07;;
16468;SDS011;8345;50.902;6.956;2024-02-28T13:53:12;24.93;;;18.97;;
16468;SDS011;8345;50.902;6.956;2024-02-28T13:55:40;26.23;;;19.50;;
16468;SDS011;8345;50.902;6.956;2024-02-28T13:58:07;23.27;;;18.90;;
16468;SDS011;8345;50.902;6.956;2024-02-28T14:00:36;27.47;;;19.37;;
16468;SDS011;8345;50.902;6.956;2024-02-28T14:03:03;24.37;;;19.23;;
16468;SDS011;8345;50.902;6.956;2024-02-28T14:05:31;26.07;;;19.90;;
16468;SDS011;8345;50.902;6.956;2024-02-28T14:07:58;26.73;;;19.77;;
16468;SDS011;8345;50.902;6.956;2024-02-28T14:10:27;26.37;;;17.80;;
16468;SDS011;8345;50.902;6.956;2024-02-28T14:12:54;27.20;;;18.80;;
16468;SDS011;8345;50.902;6.956;2024-02-28T14:15:21;24.63;;;18.23;;
16468;SDS011;8345;50.902;6.956;2024-02-28T14:17:49;23.70;;;18.63;;
16468;SDS011;8345;50.902;6.956;2024-02-28T14:20:16;24.37;;;18.63;;
16468;SDS011;8345;50.902;6.956;2024-02-28T14:22:43;20.73;;;17.03;;
16468;SDS011;8345;50.902;6.956;2024-02-28T14:25:11;23.00;;;18.67;;
16468;SDS011;8345;50.902;6.956;2024-02-28T14:27:40;22.57;;;17.57;;
16468;SDS011;8345;50.902;6.956;2024-02-28T14:30:08;21.73;;;16.77;;
16468;SDS011;8345;50.902;6.956;2024-02-28T14:32:35;28.77;;;18.60;;
16468;SDS011;8345;50.902;6.956;2024-02-28T14:35:02;22.83;;;16.87;;
16468;SDS011;8345;50.902;6.956;2024-02-28T14:37:30;23.10;;;16.70;;